Aviation Digital Data Service (ADDS)

Output produced by METARs form (1138 UTC 07 October 2022)
found at http://www.aviationweather.gov/metar/data/
 
VTUK 071100Z VRB02KT 9999 FEW030 SCT100 29/23 Q1010 NOSIG
VTUK 071000Z VRB02KT 9999 FEW018TCU SCT035 29/23 Q1010 NOSIG
VTUK 070900Z 08005KT 040V130 9999 SCT035 31/23 Q1009 NOSIG
VTUK 070800Z 07006KT 020V140 9999 SCT035 32/23 Q1009 NOSIG
VTUK 070700Z 07006KT 030V140 9999 BKN035 31/23 Q1010 NOSIG
VTUK 070600Z VRB05KT 9999 BKN035 31/23 Q1011 NOSIG
VTUK 070500Z 07006KT 030V130 9999 BKN035 30/23 Q1013 NOSIG
VTUK 070400Z 08007KT 040V140 9999 SCT030 30/23 Q1013 NOSIG
VTUK 070300Z 04009KT 020V080 9999 SCT030 29/22 Q1014 NOSIG
VTUK 070200Z 05007KT 020V080 9999 FEW030 28/23 Q1014 NOSIG
VTUK 070100Z 36005KT 330V030 9999 FEW030 27/24 Q1014 NOSIG
VTUK 070000Z 36002KT 9000 FEW030 25/24 Q1013 NOSIG
VTUK 062300Z 02003KT 8000 FEW030 24/24 Q1012 NOSIG
VTUK 062200Z 32002KT 8000 NSC 24/24 Q1012 NOSIG
VTUK 062100Z 04004KT 8000 FEW030 25/23 Q1012 NOSIG
VTUK 062000Z 06004KT 8000 FEW030 25/24 Q1012 NOSIG
VTUK 061900Z 01003KT 8000 FEW030 SCT080 25/25 Q1013 NOSIG
VTUK 061800Z 04002KT 8000 FEW030 SCT080 25/24 Q1013 NOSIG
VTUK 061700Z 05002KT 8000 FEW030 SCT080 25/25 Q1014 NOSIG
VTUK 061600Z 04002KT 9000 FEW030 BKN080 25/25 Q1014 NOSIG
VTUK 061500Z 07003KT 9000 FEW030 SCT080 25/24 Q1014 NOSIG
VTUK 061400Z VRB02KT 9000 FEW030 SCT080 25/24 Q1013 NOSIG
VTUK 061300Z 04002KT 9000 FEW030 SCT080 25/24 Q1013 NOSIG
VTUK 061200Z 01003KT 320V040 9000 FEW030 SCT080 25/24 Q1012 NOSIG
TAF VTUK 071100Z 0712/0812 06005KT 8000 FEW030 SCT100 
     TEMPO 0809/0812 VRB15KT 4000 TSRA FEW018CB BKN020 BKN080